KGAD/GAD METAR and TAF weather

Enter ICAO airport designator
Station Type Date Time Source
KGAD METAR 2020/07/14 06:56 UTC NOAA

KGAD 140656Z AUTO 00000KT 10SM CLR 20/20 A2996 RMK AO2 SLP143 T02000200


Station Type Date Time Source
KGAD Decoded METAR 2020/07/14 06:56 UTC NOAA

Gadsden, Gadsden Municipal Airport, AL, United States (KGAD) 33-58N 086-05W
Jul 14, 2020 - 02:56 AM EDT / 2020.07.14 0656 UTC
Wind: Calm:0
Visibility: 10 mile(s):0
Sky conditions: clear
Temperature: 68.0 F (20.0 C)
Dew Point: 68.0 F (20.0 C)
Relative Humidity: 100%
Pressure (altimeter): 29.96 in. Hg (1014 hPa)
ob: KGAD 140656Z AUTO 00000KT 10SM CLR 20/20 A2996 RMK AO2 SLP143 T02000200
cycle: 7

Station Type Date Time Source
KGAD TAF UTC NOAA

Error!

Example: see airport list